createdAt,value
2018-06-27T00:01:16.979Z,18.20
2018-06-27T00:03:45.674Z,21.17
2018-06-27T00:06:13.907Z,18.13
2018-06-27T00:08:42.440Z,15.73
2018-06-27T00:11:10.760Z,18.33
2018-06-27T00:13:40.176Z,20.37
2018-06-27T00:16:08.992Z,15.23
2018-06-27T00:18:37.606Z,22.00
2018-06-27T00:21:06.770Z,21.23
2018-06-27T00:23:35.707Z,20.87
2018-06-27T00:26:04.544Z,22.33
2018-06-27T00:28:43.060Z,22.30
2018-06-27T00:31:11.564Z,15.50
2018-06-27T00:33:40.092Z,22.33
2018-06-27T00:36:08.636Z,24.90
2018-06-27T00:38:37.133Z,19.47
2018-06-27T00:41:06.095Z,21.23
2018-06-27T00:43:34.723Z,23.40
2018-06-27T00:46:03.671Z,26.03
2018-06-27T00:48:32.220Z,21.03
2018-06-27T00:51:00.921Z,22.27
2018-06-27T00:53:35.009Z,16.93
2018-06-27T00:56:03.613Z,24.27
2018-06-27T00:58:32.097Z,18.37
2018-06-27T01:01:00.678Z,18.97
2018-06-27T01:03:29.183Z,19.07
2018-06-27T01:05:57.795Z,18.80
2018-06-27T01:08:26.322Z,20.00
2018-06-27T01:10:54.805Z,20.13
2018-06-27T01:13:23.656Z,18.50
2018-06-27T01:15:52.178Z,22.17
2018-06-27T01:18:20.683Z,18.03
2018-06-27T01:20:49.216Z,21.00
2018-06-27T01:23:18.281Z,23.87
2018-06-27T01:25:46.792Z,21.63
2018-06-27T01:28:15.302Z,18.43
2018-06-27T01:30:43.820Z,20.87
2018-06-27T01:33:12.304Z,20.07
2018-06-27T01:35:40.910Z,19.77
2018-06-27T01:38:09.611Z,20.37
2018-06-27T01:40:38.134Z,20.23
2018-06-27T01:43:06.894Z,20.07
2018-06-27T01:45:35.404Z,19.70
2018-06-27T01:48:03.884Z,23.20
2018-06-27T01:50:32.740Z,22.07
2018-06-27T01:53:01.224Z,24.40
2018-06-27T01:55:29.770Z,25.50
2018-06-27T01:57:58.426Z,23.93
2018-06-27T02:00:26.983Z,18.50
2018-06-27T02:02:55.656Z,23.23
2018-06-27T02:05:24.158Z,22.93
2018-06-27T02:07:52.841Z,21.90
2018-06-27T02:10:21.330Z,20.97
2018-06-27T02:12:49.852Z,27.57
2018-06-27T02:15:18.052Z,26.07
2018-06-27T02:17:46.619Z,27.03
2018-06-27T02:20:15.722Z,20.93
2018-06-27T02:22:44.241Z,24.67
2018-06-27T02:25:12.787Z,26.40
2018-06-27T02:27:41.646Z,25.53
2018-06-27T02:30:10.349Z,28.40
2018-06-27T02:32:38.877Z,22.57
2018-06-27T02:35:07.747Z,24.50
2018-06-27T02:37:36.257Z,24.77
2018-06-27T02:40:04.823Z,21.57
2018-06-27T02:42:33.515Z,22.43
2018-06-27T02:45:02.069Z,25.97
2018-06-27T02:47:30.569Z,25.63
2018-06-27T02:49:59.091Z,23.93
2018-06-27T02:52:27.600Z,27.20
2018-06-27T02:54:56.101Z,25.33
2018-06-27T02:57:24.618Z,23.50
2018-06-27T02:59:52.947Z,25.47
2018-06-27T03:02:21.573Z,21.87
2018-06-27T03:04:50.119Z,24.50
2018-06-27T03:07:18.758Z,24.73
2018-06-27T03:09:47.289Z,24.17
2018-06-27T03:12:15.809Z,27.47
2018-06-27T03:14:44.315Z,26.27
2018-06-27T03:18:15.717Z,27.17
2018-06-27T03:20:44.261Z,25.30
2018-06-27T03:23:12.735Z,24.27
2018-06-27T03:25:41.954Z,29.90
2018-06-27T03:28:10.945Z,25.20
2018-06-27T03:30:39.534Z,22.60
2018-06-27T03:33:08.132Z,25.37
2018-06-27T03:35:36.647Z,26.97
2018-06-27T03:38:05.622Z,25.13
2018-06-27T03:40:33.793Z,27.07
2018-06-27T03:43:02.289Z,28.33
2018-06-27T03:45:30.807Z,24.80
2018-06-27T03:47:59.805Z,31.00
2018-06-27T03:50:28.537Z,24.57
2018-06-27T03:52:57.100Z,28.90
2018-06-27T03:55:25.813Z,28.17
2018-06-27T03:57:54.408Z,28.17
2018-06-27T04:00:22.961Z,28.17
2018-06-27T04:02:51.464Z,28.50
2018-06-27T04:05:20.220Z,26.10
2018-06-27T04:07:48.834Z,26.70
2018-06-27T04:10:17.357Z,33.80
2018-06-27T04:12:45.958Z,32.17
2018-06-27T04:15:14.437Z,30.10
2018-06-27T04:17:43.073Z,28.87
2018-06-27T04:20:11.701Z,25.80
2018-06-27T04:22:40.178Z,26.63
2018-06-27T04:25:08.735Z,26.70
2018-06-27T04:27:37.218Z,31.27
2018-06-27T04:30:06.089Z,32.47
2018-06-27T04:32:34.877Z,26.63
2018-06-27T04:35:03.392Z,35.40
2018-06-27T04:37:31.889Z,26.73
2018-06-27T04:40:00.424Z,31.70
2018-06-27T04:42:28.939Z,27.47
2018-06-27T04:44:57.436Z,30.57
2018-06-27T04:47:26.504Z,31.50
2018-06-27T04:49:54.838Z,28.20
2018-06-27T04:52:23.378Z,29.57
2018-06-27T04:54:51.724Z,28.53
2018-06-27T04:57:20.203Z,24.57
2018-06-27T04:59:48.702Z,25.83
2018-06-27T05:02:17.203Z,23.17
2018-06-27T05:04:45.711Z,29.03
2018-06-27T05:07:14.253Z,32.40
2018-06-27T05:09:42.898Z,25.13
2018-06-27T05:12:11.433Z,28.00
2018-06-27T05:14:39.965Z,26.20
2018-06-27T05:17:08.591Z,27.77
2018-06-27T05:19:42.430Z,25.23
2018-06-27T05:22:11.318Z,27.60
2018-06-27T05:24:39.839Z,30.47
2018-06-27T05:27:08.670Z,26.10
2018-06-27T05:29:37.403Z,26.33
2018-06-27T05:32:07.315Z,23.13
2018-06-27T05:34:35.823Z,23.17
2018-06-27T05:37:04.717Z,26.27
2018-06-27T05:39:33.335Z,18.97
2018-06-27T05:42:02.022Z,25.67
2018-06-27T05:44:30.565Z,22.27
2018-06-27T05:46:59.159Z,25.87
2018-06-27T05:49:27.675Z,24.33
2018-06-27T05:51:56.187Z,22.80
2018-06-27T05:54:24.726Z,22.60
2018-06-27T05:56:53.226Z,22.27
2018-06-27T05:59:21.950Z,22.77
2018-06-27T06:01:50.588Z,22.33
2018-06-27T06:04:19.488Z,27.03
2018-06-27T06:06:48.197Z,23.97
2018-06-27T06:09:16.835Z,23.47
2018-06-27T06:11:45.858Z,24.23
2018-06-27T06:14:14.348Z,22.23
2018-06-27T06:16:42.817Z,29.33
2018-06-27T06:19:11.559Z,24.47
2018-06-27T06:21:40.386Z,21.67
2018-06-27T06:24:09.365Z,20.93
2018-06-27T06:26:38.368Z,28.23
2018-06-27T06:29:07.022Z,26.97
2018-06-27T06:31:35.702Z,21.03
2018-06-27T06:34:04.412Z,29.40
2018-06-27T06:36:32.995Z,25.33
2018-06-27T06:39:01.541Z,22.53
2018-06-27T06:41:30.137Z,27.17
2018-06-27T06:43:59.036Z,23.47
2018-06-27T06:46:28.128Z,25.63
2018-06-27T06:48:56.849Z,24.00
2018-06-27T06:51:25.797Z,23.13
2018-06-27T06:53:54.341Z,23.07
2018-06-27T06:56:22.880Z,21.73
2018-06-27T06:58:51.453Z,29.67
2018-06-27T07:01:20.534Z,24.93
2018-06-27T07:03:49.067Z,22.50
2018-06-27T07:06:19.101Z,25.30
2018-06-27T07:08:47.614Z,25.60
2018-06-27T07:11:16.284Z,26.43
2018-06-27T07:13:44.784Z,28.67
2018-06-27T07:16:13.327Z,25.50
2018-06-27T07:18:41.894Z,28.17
2018-06-27T07:21:10.072Z,31.37
2018-06-27T07:23:38.920Z,29.37
2018-06-27T07:26:07.474Z,23.10
2018-06-27T07:28:36.251Z,25.80
2018-06-27T07:31:04.916Z,22.43
2018-06-27T07:33:33.422Z,21.73
2018-06-27T07:36:02.354Z,24.80
2018-06-27T07:38:30.951Z,28.43
2018-06-27T07:40:59.790Z,32.63
2018-06-27T07:43:28.370Z,24.43
2018-06-27T07:45:57.104Z,24.23
2018-06-27T07:48:25.643Z,23.77
2018-06-27T07:50:54.481Z,23.30
2018-06-27T07:53:22.676Z,30.70
2018-06-27T07:55:51.213Z,28.30
2018-06-27T07:58:19.820Z,30.17
2018-06-27T08:00:48.377Z,26.43
2018-06-27T08:03:16.924Z,25.43
2018-06-27T08:05:45.736Z,31.97
2018-06-27T08:08:14.718Z,26.37
2018-06-27T08:10:43.231Z,24.63
2018-06-27T08:13:11.778Z,29.57
2018-06-27T08:15:40.571Z,27.53
2018-06-27T08:18:09.134Z,29.73
2018-06-27T08:20:37.858Z,26.70
2018-06-27T08:23:06.486Z,24.83
2018-06-27T08:25:35.429Z,24.53
2018-06-27T08:28:04.024Z,22.67
2018-06-27T08:30:32.546Z,28.10
2018-06-27T08:33:01.425Z,23.27
2018-06-27T08:35:29.994Z,25.57
2018-06-27T08:37:58.557Z,30.20
2018-06-27T08:40:27.075Z,28.27
2018-06-27T08:42:55.667Z,26.33
2018-06-27T08:45:24.234Z,25.30
2018-06-27T08:47:52.998Z,25.17
2018-06-27T08:50:21.774Z,24.90
2018-06-27T08:52:51.333Z,21.23
2018-06-27T08:55:19.899Z,22.97
2018-06-27T08:57:48.734Z,26.97
2018-06-27T09:00:17.386Z,25.17
2018-06-27T09:02:45.941Z,31.63
2018-06-27T09:05:19.157Z,22.83
2018-06-27T09:07:47.823Z,26.67
2018-06-27T09:10:16.407Z,30.67
2018-06-27T09:12:44.936Z,26.33
2018-06-27T09:15:13.487Z,24.97
2018-06-27T09:17:42.044Z,25.03
2018-06-27T09:20:10.578Z,26.40
2018-06-27T09:22:39.132Z,27.40
2018-06-27T09:25:08.839Z,27.50
2018-06-27T09:27:37.360Z,28.67
2018-06-27T09:30:05.925Z,27.30
2018-06-27T09:32:34.503Z,28.73
2018-06-27T09:35:03.105Z,22.43
2018-06-27T09:37:31.636Z,26.40
2018-06-27T09:40:00.880Z,30.87
2018-06-27T09:42:29.423Z,25.43
2018-06-27T09:44:58.037Z,25.27
2018-06-27T09:47:26.596Z,24.87
2018-06-27T09:49:55.307Z,27.33
2018-06-27T09:52:24.150Z,24.20
2018-06-27T09:54:56.260Z,24.17
2018-06-27T09:57:25.666Z,18.73
2018-06-27T09:59:54.266Z,23.83
2018-06-27T10:02:23.085Z,24.80
2018-06-27T10:04:52.004Z,20.33
2018-06-27T10:07:21.096Z,21.20
2018-06-27T10:09:49.603Z,23.03
2018-06-27T10:12:18.172Z,20.63
2018-06-27T10:14:46.774Z,22.97
2018-06-27T10:17:15.095Z,22.50
2018-06-27T10:19:43.607Z,19.80
2018-06-27T10:22:12.296Z,18.43
2018-06-27T10:24:40.849Z,24.67
2018-06-27T10:27:09.335Z,19.13
2018-06-27T10:29:37.886Z,22.27
2018-06-27T10:32:06.444Z,25.60
2018-06-27T10:34:34.991Z,22.97
2018-06-27T10:37:03.498Z,24.13
2018-06-27T10:39:32.083Z,22.57
2018-06-27T10:42:00.598Z,23.10
2018-06-27T10:44:29.298Z,20.90
2018-06-27T10:46:57.831Z,20.20
2018-06-27T10:49:26.426Z,23.67
2018-06-27T10:51:55.014Z,21.00
2018-06-27T10:54:23.586Z,23.10
2018-06-27T10:56:52.139Z,22.20
2018-06-27T10:59:20.673Z,22.37
2018-06-27T11:01:49.370Z,18.43
2018-06-27T11:04:17.909Z,23.93
2018-06-27T11:06:46.798Z,21.70
2018-06-27T11:09:15.404Z,20.93
2018-06-27T11:11:44.100Z,19.20
2018-06-27T11:14:12.878Z,21.07
2018-06-27T11:16:41.373Z,16.80
2018-06-27T11:19:09.950Z,18.07
2018-06-27T11:21:38.494Z,19.67
2018-06-27T11:24:07.067Z,18.47
2018-06-27T11:26:35.597Z,18.57
2018-06-27T11:29:04.369Z,19.43
2018-06-27T11:31:33.158Z,19.23
2018-06-27T11:34:01.650Z,18.63
2018-06-27T11:36:30.180Z,20.47
2018-06-27T11:38:58.909Z,19.77
2018-06-27T11:41:27.484Z,19.00
2018-06-27T11:43:56.171Z,21.17
2018-06-27T11:46:24.657Z,21.77
2018-06-27T11:48:53.215Z,15.63
2018-06-27T11:51:21.884Z,16.97
2018-06-27T11:53:51.180Z,19.90
2018-06-27T11:56:20.313Z,20.03
2018-06-27T11:58:49.116Z,21.07
2018-06-27T12:01:17.731Z,17.10
2018-06-27T12:03:46.473Z,19.37
2018-06-27T12:06:15.037Z,15.10
2018-06-27T12:08:43.580Z,19.87
2018-06-27T12:11:12.138Z,21.80
2018-06-27T12:13:40.945Z,19.80
2018-06-27T12:16:10.191Z,22.20
2018-06-27T12:18:38.877Z,21.90
2018-06-27T12:21:07.594Z,17.57
2018-06-27T12:23:36.488Z,22.40
2018-06-27T12:26:05.541Z,17.13
2018-06-27T12:28:34.088Z,16.57
2018-06-27T12:31:02.666Z,18.33
2018-06-27T12:33:31.189Z,22.13
2018-06-27T12:36:00.039Z,21.83
2018-06-27T12:38:28.634Z,18.37
2018-06-27T12:40:57.341Z,21.57
2018-06-27T12:43:25.911Z,18.27
2018-06-27T12:45:54.761Z,18.87
2018-06-27T12:48:23.403Z,18.30
2018-06-27T12:50:52.179Z,19.47
2018-06-27T12:53:21.293Z,20.63
2018-06-27T12:55:49.926Z,22.50
2018-06-27T12:58:18.485Z,21.73
2018-06-27T13:00:47.102Z,25.07
2018-06-27T13:03:15.596Z,24.60
2018-06-27T13:05:44.161Z,22.63
2018-06-27T13:08:13.054Z,18.60
2018-06-27T13:10:41.629Z,19.60
2018-06-27T13:13:10.171Z,21.77
2018-06-27T13:15:39.103Z,22.43
2018-06-27T13:18:08.198Z,18.23
2018-06-27T13:20:37.711Z,27.53
2018-06-27T13:23:06.295Z,24.13
2018-06-27T13:25:34.914Z,27.00
2018-06-27T13:28:04.145Z,22.40
2018-06-27T13:30:32.710Z,23.47
2018-06-27T13:33:01.255Z,25.40
2018-06-27T13:35:29.973Z,24.70
2018-06-27T13:37:58.601Z,22.20
2018-06-27T13:40:27.871Z,23.60
2018-06-27T13:42:56.923Z,20.03
2018-06-27T13:45:25.891Z,20.93
2018-06-27T13:47:54.769Z,19.00
2018-06-27T13:50:23.335Z,22.00
2018-06-27T13:52:54.213Z,20.37
2018-06-27T13:55:22.770Z,21.73
2018-06-27T13:57:51.489Z,23.47
2018-06-27T14:00:20.045Z,23.47
2018-06-27T14:02:48.647Z,24.40
2018-06-27T14:05:17.230Z,30.73
2018-06-27T14:07:46.108Z,25.50
2018-06-27T14:10:14.676Z,23.50
2018-06-27T14:12:43.187Z,22.80
2018-06-27T14:15:11.780Z,24.70
2018-06-27T14:17:40.370Z,28.83
2018-06-27T14:20:09.276Z,24.37
2018-06-27T14:22:37.903Z,25.20
2018-06-27T14:25:06.734Z,22.10
2018-06-27T14:27:35.253Z,24.80
2018-06-27T14:30:04.696Z,22.33
2018-06-27T14:32:33.235Z,22.40
2018-06-27T14:35:01.862Z,23.80
2018-06-27T14:37:30.412Z,24.17
2018-06-27T14:39:59.041Z,20.57
2018-06-27T14:42:27.601Z,23.33
2018-06-27T14:44:56.290Z,21.93
2018-06-27T14:47:25.169Z,22.37
2018-06-27T14:49:53.788Z,23.97
2018-06-27T14:52:22.385Z,25.13
2018-06-27T14:54:51.722Z,22.43
2018-06-27T14:57:20.567Z,26.43
2018-06-27T14:59:49.692Z,23.97
2018-06-27T15:02:18.480Z,23.60
2018-06-27T15:04:47.187Z,22.47
2018-06-27T15:07:15.703Z,17.53
2018-06-27T15:09:43.978Z,24.87
2018-06-27T15:12:12.846Z,16.20
2018-06-27T15:14:41.397Z,19.47
2018-06-27T15:17:10.187Z,20.33
2018-06-27T15:19:38.928Z,16.77
2018-06-27T15:22:07.488Z,18.90
2018-06-27T15:24:36.007Z,21.23
2018-06-27T15:27:04.669Z,20.10
2018-06-27T15:29:33.223Z,17.27
2018-06-27T15:32:02.064Z,19.37
2018-06-27T15:34:30.857Z,16.63
2018-06-27T15:36:59.471Z,19.63
2018-06-27T15:39:28.045Z,17.93
2018-06-27T15:41:56.622Z,21.27
2018-06-27T15:44:25.600Z,15.90
2018-06-27T15:46:54.408Z,17.30
2018-06-27T15:49:23.514Z,18.73
2018-06-27T15:51:52.089Z,15.93
2018-06-27T15:54:20.694Z,20.23
2018-06-27T15:56:49.247Z,17.53
2018-06-27T15:59:17.888Z,19.17
2018-06-27T16:01:46.482Z,16.20
2018-06-27T16:04:14.674Z,13.97
2018-06-27T16:06:43.247Z,14.03
2018-06-27T16:09:11.979Z,13.20
2018-06-27T16:11:40.624Z,17.40
2018-06-27T16:14:09.131Z,18.47
2018-06-27T16:16:37.737Z,16.47
2018-06-27T16:19:06.304Z,13.20
2018-06-27T16:21:34.887Z,12.90
2018-06-27T16:24:03.431Z,14.80
2018-06-27T16:26:32.148Z,15.30
2018-06-27T16:29:00.686Z,15.63
2018-06-27T16:31:29.266Z,16.00
2018-06-27T16:33:57.817Z,13.70
2018-06-27T16:36:26.579Z,14.30
2018-06-27T16:38:55.304Z,17.30
2018-06-27T16:41:23.888Z,15.50
2018-06-27T16:43:52.281Z,14.10
2018-06-27T16:46:20.888Z,14.57
2018-06-27T16:48:49.437Z,15.10
2018-06-27T16:51:18.724Z,14.13
2018-06-27T16:53:47.049Z,14.87
2018-06-27T16:56:15.472Z,15.37
2018-06-27T16:58:44.174Z,13.13
2018-06-27T17:01:13.672Z,17.57
2018-06-27T17:03:42.393Z,16.70
2018-06-27T17:06:11.113Z,14.00
2018-06-27T17:08:39.657Z,13.73
2018-06-27T17:11:08.182Z,15.60
2018-06-27T17:13:36.718Z,13.57
2018-06-27T17:16:05.387Z,14.57
2018-06-27T17:18:34.398Z,14.53
2018-06-27T17:21:02.939Z,16.00
2018-06-27T17:23:31.626Z,16.47
2018-06-27T17:26:00.270Z,16.60
2018-06-27T17:28:29.087Z,18.07
2018-06-27T17:30:57.929Z,12.73
2018-06-27T17:33:26.676Z,17.90
2018-06-27T17:35:55.275Z,18.03
2018-06-27T17:38:23.815Z,10.97
2018-06-27T17:40:52.463Z,15.70
2018-06-27T17:43:21.063Z,14.50
2018-06-27T17:45:50.309Z,18.27
2018-06-27T17:48:19.192Z,13.63
2018-06-27T17:50:47.790Z,16.37
2018-06-27T17:53:16.345Z,19.83
2018-06-27T17:55:44.594Z,13.17
2018-06-27T17:58:13.635Z,17.33
2018-06-27T18:00:42.237Z,16.27
2018-06-27T18:03:10.797Z,11.17
2018-06-27T18:05:39.669Z,18.07
2018-06-27T18:08:08.522Z,14.03
2018-06-27T18:10:37.111Z,17.70
2018-06-27T18:13:05.703Z,15.63
2018-06-27T18:15:34.233Z,16.77
2018-06-27T18:18:03.227Z,17.17
2018-06-27T18:20:31.934Z,14.93
2018-06-27T18:23:00.513Z,16.23
2018-06-27T18:25:29.274Z,16.10
2018-06-27T18:27:58.020Z,15.40
2018-06-27T18:30:26.735Z,17.93
2018-06-27T18:32:55.350Z,14.40
2018-06-27T18:35:24.143Z,16.17
2018-06-27T18:37:53.026Z,16.40
2018-06-27T18:40:21.695Z,15.53
2018-06-27T18:42:50.458Z,18.27
2018-06-27T18:45:19.213Z,18.73
2018-06-27T18:47:47.752Z,15.00
2018-06-27T18:50:16.300Z,17.40
2018-06-27T18:52:48.364Z,14.50
2018-06-27T18:55:16.884Z,17.40
2018-06-27T18:57:46.639Z,19.43
2018-06-27T19:00:15.143Z,20.87
2018-06-27T19:02:43.882Z,18.70
2018-06-27T19:05:12.476Z,15.93
2018-06-27T19:07:41.093Z,18.67
2018-06-27T19:10:09.656Z,19.47
2018-06-27T19:12:38.245Z,16.30
2018-06-27T19:15:07.181Z,19.93
2018-06-27T19:17:36.279Z,21.27
2018-06-27T19:20:06.168Z,14.70
2018-06-27T19:22:34.874Z,18.40
2018-06-27T19:25:03.788Z,17.80
2018-06-27T19:27:32.354Z,19.20
2018-06-27T19:30:00.926Z,17.70
2018-06-27T19:32:29.528Z,17.40
2018-06-27T19:34:58.072Z,26.83
2018-06-27T19:37:26.926Z,15.03
2018-06-27T19:39:55.190Z,18.57
2018-06-27T19:42:23.728Z,17.60
2018-06-27T19:44:52.669Z,18.63
2018-06-27T19:47:20.999Z,18.67
2018-06-27T19:49:49.803Z,21.93
2018-06-27T19:52:19.424Z,20.57
2018-06-27T19:54:48.107Z,18.33
2018-06-27T19:57:16.946Z,20.63
2018-06-27T19:59:45.527Z,22.13
2018-06-27T20:02:14.176Z,19.73
2018-06-27T20:04:42.606Z,17.37
2018-06-27T20:07:11.248Z,25.77
2018-06-27T20:09:39.784Z,20.07
2018-06-27T20:12:08.553Z,22.17
2018-06-27T20:14:37.132Z,22.07
2018-06-27T20:17:05.664Z,24.07
2018-06-27T20:19:34.274Z,21.20
2018-06-27T20:22:02.948Z,24.90
2018-06-27T20:24:31.618Z,22.10
2018-06-27T20:27:00.404Z,23.37
2018-06-27T20:29:29.116Z,21.43
2018-06-27T20:31:57.699Z,24.30
2018-06-27T20:34:26.402Z,21.30
2018-06-27T20:36:55.073Z,19.87
2018-06-27T20:39:23.767Z,22.17
2018-06-27T20:41:52.530Z,25.97
2018-06-27T20:44:21.107Z,19.97
2018-06-27T20:46:49.673Z,22.77
2018-06-27T20:49:18.195Z,19.67
2018-06-27T20:51:46.781Z,24.27
2018-06-27T20:54:15.492Z,20.70
2018-06-27T20:56:44.286Z,18.93
2018-06-27T20:59:13.071Z,23.63
2018-06-27T21:01:41.624Z,22.47
2018-06-27T21:04:11.573Z,21.23
2018-06-27T21:06:40.143Z,22.00
2018-06-27T21:09:10.161Z,20.00
2018-06-27T21:11:38.777Z,16.53
2018-06-27T21:14:07.295Z,23.97
2018-06-27T21:16:36.055Z,23.00
2018-06-27T21:19:04.658Z,24.10
2018-06-27T21:21:33.180Z,23.13
2018-06-27T21:24:01.403Z,22.83
2018-06-27T21:26:30.282Z,16.73
2018-06-27T21:28:59.020Z,22.10
2018-06-27T21:31:27.541Z,25.60
2018-06-27T21:33:56.639Z,25.23
2018-06-27T21:36:25.183Z,22.10
2018-06-27T21:38:53.771Z,22.83
2018-06-27T21:41:22.347Z,24.00
2018-06-27T21:43:50.604Z,23.50
2018-06-27T21:46:20.048Z,28.40
2018-06-27T21:48:49.408Z,24.60
2018-06-27T21:51:18.020Z,17.17
2018-06-27T21:53:46.310Z,21.33
2018-06-27T21:56:14.870Z,19.10
2018-06-27T21:58:43.375Z,25.53
2018-06-27T22:01:11.966Z,25.57
2018-06-27T22:03:40.544Z,23.30
2018-06-27T22:06:09.523Z,26.67
2018-06-27T22:08:38.215Z,24.95
2018-06-27T22:11:06.931Z,23.07
2018-06-27T22:13:35.465Z,23.23
2018-06-27T22:16:04.139Z,23.97
2018-06-27T22:18:32.705Z,21.50
2018-06-27T22:21:01.655Z,23.50
2018-06-27T22:23:30.338Z,33.63
2018-06-27T22:25:58.860Z,27.07
2018-06-27T22:28:27.363Z,25.47
2018-06-27T22:30:55.666Z,24.20
2018-06-27T22:33:24.534Z,25.00
2018-06-27T22:35:53.144Z,25.37
2018-06-27T22:38:21.649Z,20.87
2018-06-27T22:40:50.235Z,23.40
2018-06-27T22:43:18.741Z,17.73
2018-06-27T22:45:47.274Z,22.50
2018-06-27T22:48:15.834Z,23.30
2018-06-27T22:50:44.516Z,24.33
2018-06-27T22:53:13.023Z,23.60
2018-06-27T22:55:41.700Z,19.03
2018-06-27T22:58:10.271Z,30.73
2018-06-27T23:00:39.067Z,24.77
2018-06-27T23:03:07.605Z,27.17
2018-06-27T23:05:36.364Z,29.37
2018-06-27T23:08:05.154Z,27.80
2018-06-27T23:10:34.838Z,31.03
2018-06-27T23:13:03.983Z,24.77
2018-06-27T23:15:32.255Z,26.93
2018-06-27T23:18:00.792Z,24.23
2018-06-27T23:20:29.298Z,24.20
2018-06-27T23:22:57.847Z,25.10
2018-06-27T23:25:26.397Z,21.73
2018-06-27T23:27:54.939Z,21.70
2018-06-27T23:30:23.522Z,21.33
2018-06-27T23:32:52.139Z,21.13
2018-06-27T23:35:20.643Z,21.70
2018-06-27T23:37:49.176Z,31.03
2018-06-27T23:40:17.807Z,23.83
2018-06-27T23:42:46.451Z,26.87
2018-06-27T23:45:15.657Z,25.37
2018-06-27T23:47:43.998Z,24.33
2018-06-27T23:50:12.829Z,20.93
2018-06-27T23:52:41.536Z,23.30
2018-06-27T23:55:10.375Z,19.53
2018-06-27T23:57:38.974Z,23.47
